Time,TemperatureF,DewpointF,PressureIn,WindDirection,WindDirectionDegrees,WindSpeedMPH,WindSpeedGustMPH,Humidity,HourlyPrecipIn,Conditions,Clouds,dailyrainin,SoftwareType,DateUTC
2013-07-07 00:04:00,69.8,69.4,29.13,East,90,0.0,0.0,99,0.00,,,0.46,meteohub,2013-07-07 10:04:00,
2013-07-07 00:09:00,69.8,69.4,29.12,East,90,0.0,0.0,99,0.00,,,0.00,meteohub,2013-07-07 10:09:00,
2013-07-07 00:14:00,69.8,69.4,29.12,East,90,0.0,0.0,99,0.00,,,0.00,meteohub,2013-07-07 10:14:00,
2013-07-07 00:19:00,69.8,69.4,29.12,East,90,0.0,0.0,99,0.00,,,0.00,meteohub,2013-07-07 10:19:00,
2013-07-07 00:25:00,69.6,69.3,29.12,East,90,0.0,0.0,99,0.00,,,0.00,meteohub,2013-07-07 10:25:00,
2013-07-07 00:30:00,69.6,69.3,29.12,East,90,0.0,0.0,99,0.00,,,0.00,meteohub,2013-07-07 10:30:00,
2013-07-07 00:35:00,69.6,69.3,29.11,East,90,0.0,0.0,99,0.00,,,0.00,meteohub,2013-07-07 10:35:00,
2013-07-07 00:40:00,69.6,69.3,29.11,East,90,0.0,0.0,99,0.00,,,0.00,meteohub,2013-07-07 10:40:00,
2013-07-07 00:45:00,69.6,69.3,29.11,East,90,0.0,0.0,99,0.00,,,0.00,meteohub,2013-07-07 10:45:00,
2013-07-07 00:50:00,69.6,69.3,29.11,East,90,0.0,0.0,99,0.00,,,0.00,meteohub,2013-07-07 10:50:00,
2013-07-07 00:55:00,69.4,69.1,29.11,East,90,0.0,1.0,99,0.00,,,0.00,meteohub,2013-07-07 10:55:00,
2013-07-07 01:00:00,69.3,68.9,29.11,East,90,0.0,1.0,99,0.00,,,0.00,meteohub,2013-07-07 11:00:00,
2013-07-07 01:05:00,69.1,68.7,29.11,East,90,0.0,1.0,99,0.00,,,0.00,meteohub,2013-07-07 11:05:00,
2013-07-07 01:10:00,68.9,68.5,29.10,East,90,0.0,0.0,99,0.00,,,0.00,meteohub,2013-07-07 11:10:00,
2013-07-07 01:15:00,68.9,68.5,29.10,East,90,0.0,0.0,99,0.00,,,0.00,meteohub,2013-07-07 11:15:00,
2013-07-07 01:20:00,68.7,68.4,29.10,East,90,0.0,1.0,99,0.00,,,0.00,meteohub,2013-07-07 11:20:00,
2013-07-07 01:25:00,68.5,68.2,29.10,East,90,0.0,1.0,99,0.00,,,0.00,meteohub,2013-07-07 11:25:00,
2013-07-07 01:30:00,68.4,68.0,29.09,East,90,0.0,0.0,99,0.00,,,0.00,meteohub,2013-07-07 11:30:00,
2013-07-07 01:35:00,68.0,67.6,29.10,East,90,2.0,2.0,99,0.00,,,0.00,meteohub,2013-07-07 11:35:00,
2013-07-07 01:40:00,67.8,67.5,29.09,North,-999,-999.0,2.0,99,0.00,,,0.00,meteohub,2013-07-07 11:40:00,
2013-07-07 01:45:00,67.8,67.5,29.09,North,-999,-999.0,2.0,99,0.01,,,0.01,meteohub,2013-07-07 11:45:00,
2013-07-07 01:50:00,67.6,67.3,29.09,North,-999,-999.0,-999.0,99,0.01,,,0.01,meteohub,2013-07-07 11:50:00,
2013-07-07 01:55:00,67.6,67.3,29.09,North,-999,-999.0,-999.0,99,0.01,,,0.01,meteohub,2013-07-07 11:55:00,
2013-07-07 02:00:00,67.6,67.3,29.08,North,-999,-999.0,-999.0,99,0.01,,,0.01,meteohub,2013-07-07 12:00:00,
2013-07-07 02:05:00,67.8,67.5,29.08,North,-999,-999.0,-999.0,99,0.01,,,0.01,meteohub,2013-07-07 12:05:00,
2013-07-07 02:10:00,67.8,67.5,29.08,North,-999,-999.0,-999.0,99,0.01,,,0.01,meteohub,2013-07-07 12:10:00,
2013-07-07 02:15:00,68.0,67.6,29.08,North,-999,-999.0,-999.0,99,0.01,,,0.01,meteohub,2013-07-07 12:15:00,
2013-07-07 02:20:00,68.0,67.6,29.08,North,-999,-999.0,-999.0,99,0.01,,,0.01,meteohub,2013-07-07 12:20:00,
2013-07-07 02:25:00,68.0,67.6,29.08,North,-999,-999.0,-999.0,99,0.01,,,0.01,meteohub,2013-07-07 12:25:00,
2013-07-07 02:31:00,68.0,67.6,29.08,North,-999,-999.0,-999.0,99,0.01,,,0.01,meteohub,2013-07-07 12:31:00,
2013-07-07 02:36:00,68.0,67.6,29.08,North,-999,-999.0,-999.0,99,0.01,,,0.01,meteohub,2013-07-07 12:36:00,
2013-07-07 02:41:00,68.0,67.6,29.08,North,-999,-999.0,-999.0,99,0.00,,,0.01,meteohub,2013-07-07 12:41:00,
2013-07-07 02:46:00,68.0,67.6,29.08,North,-999,-999.0,-999.0,99,0.00,,,0.01,meteohub,2013-07-07 12:46:00,
2013-07-07 02:51:00,68.0,67.6,29.07,North,-999,-999.0,-999.0,99,0.00,,,0.01,meteohub,2013-07-07 12:51:00,
2013-07-07 02:56:00,68.0,67.6,29.08,North,-999,-999.0,-999.0,99,0.00,,,0.01,meteohub,2013-07-07 12:56:00,
2013-07-07 03:01:00,68.0,67.6,29.07,North,-999,-999.0,-999.0,99,0.00,,,0.01,meteohub,2013-07-07 13:01:00,
2013-07-07 03:06:00,68.0,67.6,29.07,North,-999,-999.0,-999.0,99,0.00,,,0.01,meteohub,2013-07-07 13:06:00,
2013-07-07 03:11:00,68.0,67.6,29.07,North,-999,-999.0,-999.0,99,0.00,,,0.01,meteohub,2013-07-07 13:11:00,
2013-07-07 03:16:00,68.0,67.6,29.07,North,-999,-999.0,-999.0,99,0.00,,,0.01,meteohub,2013-07-07 13:16:00,
2013-07-07 03:21:00,68.0,67.6,29.07,North,-999,-999.0,-999.0,99,0.00,,,0.01,meteohub,2013-07-07 13:21:00,
2013-07-07 03:26:00,68.0,67.6,29.07,North,-999,-999.0,-999.0,99,0.00,,,0.01,meteohub,2013-07-07 13:26:00,
2013-07-07 03:31:00,67.8,67.5,29.07,North,-999,-999.0,-999.0,99,0.00,,,0.01,meteohub,2013-07-07 13:31:00,
2013-07-07 03:36:00,67.8,67.5,29.07,North,-999,-999.0,-999.0,99,0.00,,,0.01,meteohub,2013-07-07 13:36:00,
2013-07-07 03:41:00,68.0,67.6,29.07,North,-999,-999.0,-999.0,99,0.00,,,0.01,meteohub,2013-07-07 13:41:00,
2013-07-07 03:46:00,68.0,67.6,29.07,North,-999,-999.0,-999.0,99,0.00,,,0.01,meteohub,2013-07-07 13:46:00,
2013-07-07 03:51:00,68.0,67.6,29.07,North,-999,-999.0,-999.0,99,0.00,,,0.01,meteohub,2013-07-07 13:51:00,
2013-07-07 03:56:00,68.0,67.6,29.07,North,-999,-999.0,-999.0,99,0.00,,,0.01,meteohub,2013-07-07 13:56:00,
2013-07-07 04:01:00,68.0,67.6,29.06,North,-999,-999.0,-999.0,99,0.00,,,0.01,meteohub,2013-07-07 14:01:00,
2013-07-07 04:06:00,68.0,67.6,29.06,North,-999,-999.0,-999.0,99,0.00,,,0.01,meteohub,2013-07-07 14:06:00,
2013-07-07 04:11:00,68.0,67.6,29.06,North,-999,-999.0,-999.0,99,0.00,,,0.01,meteohub,2013-07-07 14:11:00,
2013-07-07 04:16:00,67.8,67.5,29.06,North,-999,-999.0,-999.0,99,0.00,,,0.01,meteohub,2013-07-07 14:16:00,
2013-07-07 04:21:00,67.8,67.5,29.06,North,-999,-999.0,-999.0,99,0.00,,,0.01,meteohub,2013-07-07 14:21:00,
2013-07-07 04:26:00,67.8,67.5,29.06,North,-999,-999.0,-999.0,99,0.00,,,0.01,meteohub,2013-07-07 14:26:00,
2013-07-07 04:31:00,67.8,67.5,29.06,North,-999,-999.0,-999.0,99,0.00,,,0.01,meteohub,2013-07-07 14:31:00,
2013-07-07 04:36:00,67.8,67.5,29.06,North,-999,-999.0,-999.0,99,0.00,,,0.01,meteohub,2013-07-07 14:36:00,
2013-07-07 04:41:00,67.6,67.3,29.06,North,-999,-999.0,-999.0,99,0.00,,,0.01,meteohub,2013-07-07 14:41:00,
2013-07-07 04:46:00,67.6,67.3,29.06,North,-999,-999.0,-999.0,99,0.00,,,0.01,meteohub,2013-07-07 14:46:00,
2013-07-07 04:51:00,67.6,67.3,29.06,North,-999,-999.0,-999.0,99,0.00,,,0.01,meteohub,2013-07-07 14:51:00,
2013-07-07 04:56:00,67.6,67.3,29.06,North,-999,-999.0,-999.0,99,0.00,,,0.01,meteohub,2013-07-07 14:56:00,
2013-07-07 05:01:00,67.6,67.3,29.06,North,-999,-999.0,-999.0,99,0.00,,,0.01,meteohub,2013-07-07 15:01:00,
2013-07-07 05:06:00,67.6,67.3,29.06,North,-999,-999.0,-999.0,99,0.00,,,0.01,meteohub,2013-07-07 15:06:00,
2013-07-07 05:12:00,67.5,67.1,29.06,North,-999,-999.0,-999.0,99,0.00,,,0.01,meteohub,2013-07-07 15:12:00,
2013-07-07 05:17:00,67.5,67.1,29.06,North,-999,-999.0,-999.0,99,0.00,,,0.01,meteohub,2013-07-07 15:17:00,
2013-07-07 05:22:00,67.3,66.9,29.06,North,-999,-999.0,-999.0,99,0.00,,,0.01,meteohub,2013-07-07 15:22:00,
2013-07-07 05:27:00,67.3,66.9,29.06,North,-999,-999.0,-999.0,99,0.00,,,0.01,meteohub,2013-07-07 15:27:00,
2013-07-07 05:32:00,67.1,66.7,29.06,North,-999,-999.0,-999.0,99,0.00,,,0.01,meteohub,2013-07-07 15:32:00,
2013-07-07 05:37:00,66.9,66.6,29.06,North,-999,-999.0,-999.0,99,0.00,,,0.01,meteohub,2013-07-07 15:37:00,
2013-07-07 05:42:00,66.7,66.4,29.06,North,-999,-999.0,-999.0,99,0.00,,,0.01,meteohub,2013-07-07 15:42:00,
2013-07-07 05:47:00,66.7,66.4,29.06,North,-999,-999.0,-999.0,99,0.00,,,0.01,meteohub,2013-07-07 15:47:00,
2013-07-07 05:52:00,66.4,66.0,29.06,North,-999,-999.0,-999.0,99,0.00,,,0.01,meteohub,2013-07-07 15:52:00,
2013-07-07 05:57:00,66.4,66.0,29.07,North,-999,-999.0,-999.0,99,0.00,,,0.01,meteohub,2013-07-07 15:57:00,
2013-07-07 06:02:00,66.2,65.8,29.07,North,-999,-999.0,-999.0,99,0.00,,,0.01,meteohub,2013-07-07 16:02:00,
2013-07-07 06:07:00,66.0,65.7,29.07,North,-999,-999.0,-999.0,99,0.00,,,0.01,meteohub,2013-07-07 16:07:00,
2013-07-07 06:12:00,66.0,65.7,29.07,North,-999,-999.0,-999.0,99,0.00,,,0.01,meteohub,2013-07-07 16:12:00,
2013-07-07 06:17:00,66.0,65.7,29.07,North,-999,-999.0,-999.0,99,0.00,,,0.01,meteohub,2013-07-07 16:17:00,
2013-07-07 06:22:00,66.0,65.7,29.08,North,-999,-999.0,-999.0,99,0.00,,,0.01,meteohub,2013-07-07 16:22:00,
2013-07-07 06:27:00,66.0,65.7,29.08,North,-999,-999.0,-999.0,99,0.00,,,0.01,meteohub,2013-07-07 16:27:00,
2013-07-07 06:32:00,66.0,65.7,29.08,North,-999,-999.0,-999.0,99,0.00,,,0.01,meteohub,2013-07-07 16:32:00,
2013-07-07 06:37:00,66.0,65.7,29.08,North,-999,-999.0,-999.0,99,0.00,,,0.01,meteohub,2013-07-07 16:37:00,
2013-07-07 06:42:00,66.0,65.7,29.08,North,-999,-999.0,-999.0,99,0.00,,,0.01,meteohub,2013-07-07 16:42:00,
2013-07-07 06:47:00,66.0,65.7,29.08,North,-999,-999.0,-999.0,99,0.00,,,0.01,meteohub,2013-07-07 16:47:00,
2013-07-07 06:52:00,66.4,66.0,29.08,North,-999,-999.0,-999.0,99,0.00,,,0.01,meteohub,2013-07-07 16:52:00,
2013-07-07 06:57:00,66.6,66.2,29.08,North,-999,-999.0,-999.0,99,0.00,,,0.01,meteohub,2013-07-07 16:57:00,
2013-07-07 07:02:00,66.9,66.6,29.08,North,-999,-999.0,-999.0,99,0.00,,,0.01,meteohub,2013-07-07 17:02:00,
2013-07-07 07:07:00,67.3,66.9,29.08,North,-999,-999.0,-999.0,99,0.00,,,0.01,meteohub,2013-07-07 17:07:00,
2013-07-07 07:12:00,68.0,67.6,29.08,North,-999,-999.0,-999.0,99,0.00,,,0.01,meteohub,2013-07-07 17:12:00,
2013-07-07 07:17:00,68.9,68.5,29.08,North,-999,-999.0,-999.0,99,0.00,,,0.01,meteohub,2013-07-07 17:17:00,
2013-07-07 07:22:00,70.0,69.6,29.09,North,-999,-999.0,-999.0,99,0.00,,,0.01,meteohub,2013-07-07 17:22:00,
2013-07-07 07:27:00,70.3,70.0,29.08,North,-999,-999.0,-999.0,99,0.00,,,0.01,meteohub,2013-07-07 17:27:00,
2013-07-07 07:32:00,70.3,70.0,29.09,North,-999,-999.0,-999.0,99,0.00,,,0.01,meteohub,2013-07-07 17:32:00,
2013-07-07 07:37:00,70.2,69.8,29.09,SE,135,0.0,-999.0,99,0.00,,,0.01,meteohub,2013-07-07 17:37:00,
2013-07-07 07:42:00,70.3,70.0,29.09,SE,135,0.0,2.0,99,0.00,,,0.01,meteohub,2013-07-07 17:42:00,
2013-07-07 07:47:00,70.5,70.2,29.09,SE,135,2.0,2.0,99,0.00,,,0.01,meteohub,2013-07-07 17:47:00,
2013-07-07 07:52:00,70.3,70.0,29.09,SE,135,2.0,2.0,99,0.00,,,0.01,meteohub,2013-07-07 17:52:00,
2013-07-07 07:57:00,70.5,70.2,29.09,SE,135,0.0,2.0,99,0.00,,,0.01,meteohub,2013-07-07 17:57:00,
2013-07-07 08:02:00,70.7,70.3,29.09,SE,135,2.0,2.0,99,0.00,,,0.01,meteohub,2013-07-07 18:02:00,
2013-07-07 08:07:00,70.9,70.5,29.09,South,180,1.0,2.0,99,0.00,,,0.01,meteohub,2013-07-07 18:07:00,
2013-07-07 08:12:00,71.1,70.7,29.09,East,90,2.0,2.0,99,0.00,,,0.01,meteohub,2013-07-07 18:12:00,
2013-07-07 08:17:00,71.1,70.7,29.09,East,90,0.0,2.0,99,0.00,,,0.01,meteohub,2013-07-07 18:17:00,
2013-07-07 08:22:00,71.2,70.9,29.10,East,90,1.0,3.0,99,0.00,,,0.01,meteohub,2013-07-07 18:22:00,
2013-07-07 08:27:00,71.2,70.9,29.09,SE,135,2.0,4.0,99,0.00,,,0.01,meteohub,2013-07-07 18:27:00,
2013-07-07 08:32:00,71.6,71.2,29.10,SE,135,2.0,4.0,99,0.00,,,0.01,meteohub,2013-07-07 18:32:00,
2013-07-07 08:37:00,71.8,71.4,29.09,SE,135,0.0,4.0,99,0.00,,,0.01,meteohub,2013-07-07 18:37:00,
2013-07-07 08:42:00,72.3,72.0,29.10,SE,135,0.0,4.0,99,0.00,,,0.01,meteohub,2013-07-07 18:42:00,
2013-07-07 08:47:00,72.7,72.3,29.09,SE,135,0.0,3.0,99,0.00,,,0.01,meteohub,2013-07-07 18:47:00,
2013-07-07 08:52:00,72.9,72.5,29.09,SE,135,2.0,3.0,99,0.00,,,0.01,meteohub,2013-07-07 18:52:00,
2013-07-07 08:57:00,73.0,72.7,29.09,South,180,0.0,3.0,99,0.00,,,0.01,meteohub,2013-07-07 18:57:00,
2013-07-07 09:02:00,73.2,72.9,29.09,South,180,0.0,3.0,99,0.00,,,0.01,meteohub,2013-07-07 19:02:00,
2013-07-07 09:07:00,73.2,72.9,29.09,SE,135,0.0,3.0,99,0.00,,,0.01,meteohub,2013-07-07 19:07:00,
2013-07-07 09:12:00,73.6,73.2,29.10,South,180,0.0,3.0,99,0.00,,,0.01,meteohub,2013-07-07 19:12:00,
2013-07-07 09:17:00,74.1,73.8,29.10,SE,135,4.0,4.0,99,0.00,,,0.01,meteohub,2013-07-07 19:17:00,
2013-07-07 09:22:00,73.9,73.6,29.10,South,180,0.0,5.0,99,0.00,,,0.01,meteohub,2013-07-07 19:22:00,
2013-07-07 09:27:00,74.7,74.3,29.10,SE,135,0.0,5.0,99,0.00,,,0.01,meteohub,2013-07-07 19:27:00,
2013-07-07 09:32:00,75.6,75.2,29.10,North,0,0.0,5.0,99,0.00,,,0.01,meteohub,2013-07-07 19:32:00,
2013-07-07 09:37:00,76.5,76.1,29.09,North,0,0.0,3.0,99,0.00,,,0.01,meteohub,2013-07-07 19:37:00,
2013-07-07 09:42:00,76.5,76.1,29.09,West,270,0.0,3.0,99,0.00,,,0.01,meteohub,2013-07-07 19:42:00,
2013-07-07 09:47:00,76.5,76.1,29.09,SW,225,0.0,2.0,99,0.00,,,0.01,meteohub,2013-07-07 19:47:00,
2013-07-07 09:52:00,76.8,76.5,29.09,SW,225,1.0,2.0,99,0.00,,,0.01,meteohub,2013-07-07 19:52:00,
2013-07-07 09:57:00,77.5,76.6,29.09,South,180,2.0,2.0,97,0.00,,,0.01,meteohub,2013-07-07 19:57:00,
2013-07-07 10:02:00,78.4,76.6,29.09,SE,135,2.0,2.0,94,0.00,,,0.01,meteohub,2013-07-07 20:02:00,
2013-07-07 10:07:00,77.7,75.6,29.09,East,90,2.0,3.0,93,0.00,,,0.01,meteohub,2013-07-07 20:07:00,
2013-07-07 10:12:00,77.0,74.8,29.09,SE,135,4.0,4.0,93,0.00,,,0.01,meteohub,2013-07-07 20:12:00,
2013-07-07 10:17:00,78.4,76.8,29.09,SW,225,4.0,6.0,95,0.00,,,0.01,meteohub,2013-07-07 20:17:00,
2013-07-07 10:22:00,79.0,76.5,29.08,East,90,4.0,6.0,92,0.00,,,0.01,meteohub,2013-07-07 20:22:00,
2013-07-07 10:27:00,78.6,75.7,29.08,East,90,1.0,6.0,91,0.00,,,0.01,meteohub,2013-07-07 20:27:00,
2013-07-07 10:32:00,78.1,75.2,29.09,South,180,1.0,4.0,91,0.00,,,0.01,meteohub,2013-07-07 20:32:00,
2013-07-07 10:37:00,77.4,74.5,29.09,SE,135,2.0,4.0,91,0.00,,,0.01,meteohub,2013-07-07 20:37:00,
2013-07-07 10:42:00,76.6,74.5,29.09,SE,135,4.0,4.0,93,0.00,,,0.01,meteohub,2013-07-07 20:42:00,
2013-07-07 10:47:00,76.1,74.5,29.09,South,180,2.0,5.0,95,0.00,,,0.01,meteohub,2013-07-07 20:47:00,
2013-07-07 10:52:00,75.7,74.1,29.09,East,90,2.0,5.0,95,0.00,,,0.01,meteohub,2013-07-07 20:52:00,
2013-07-07 10:57:00,75.6,74.3,29.08,SE,135,2.0,5.0,96,0.00,,,0.01,meteohub,2013-07-07 20:57:00,
2013-07-07 11:02:00,75.0,74.1,29.08,SE,135,2.0,5.0,97,0.00,,,0.01,meteohub,2013-07-07 21:02:00,
2013-07-07 11:07:00,74.8,73.6,29.08,SE,135,3.0,4.0,96,0.00,,,0.01,meteohub,2013-07-07 21:07:00,
2013-07-07 11:12:00,74.1,72.9,29.08,South,180,1.0,4.0,96,0.00,,,0.01,meteohub,2013-07-07 21:12:00,
2013-07-07 11:17:00,74.3,73.4,29.08,NW,315,2.0,4.0,97,0.00,,,0.01,meteohub,2013-07-07 21:17:00,
2013-07-07 11:23:00,74.7,73.4,29.08,SE,135,2.0,4.0,96,0.00,,,0.01,meteohub,2013-07-07 21:23:00,
2013-07-07 11:28:00,75.0,73.8,29.08,SE,135,2.0,4.0,96,0.00,,,0.01,meteohub,2013-07-07 21:28:00,
2013-07-07 11:33:00,75.0,73.4,29.08,West,270,0.0,3.0,95,0.00,,,0.01,meteohub,2013-07-07 21:33:00,
2013-07-07 11:38:00,75.6,73.8,29.07,SE,135,3.0,3.0,94,0.00,,,0.01,meteohub,2013-07-07 21:38:00,
2013-07-07 11:43:00,75.6,73.4,29.07,SE,135,2.0,3.0,93,0.00,,,0.01,meteohub,2013-07-07 21:43:00,
2013-07-07 11:48:00,75.4,73.2,29.07,South,180,3.0,3.0,93,0.00,,,0.01,meteohub,2013-07-07 21:48:00,
2013-07-07 11:53:00,75.7,72.9,29.06,SE,135,3.0,4.0,91,0.00,,,0.01,meteohub,2013-07-07 21:53:00,
2013-07-07 11:58:00,76.5,73.2,29.06,South,180,2.0,4.0,90,0.00,,,0.01,meteohub,2013-07-07 21:58:00,
2013-07-07 12:03:00,77.2,73.4,29.06,South,180,2.0,4.0,88,0.00,,,0.01,meteohub,2013-07-07 22:03:00,
2013-07-07 12:08:00,78.4,73.9,29.06,South,180,3.0,3.0,86,0.00,,,0.01,meteohub,2013-07-07 22:08:00,
2013-07-07 12:13:00,79.0,74.8,29.06,South,180,2.0,4.0,87,0.00,,,0.01,meteohub,2013-07-07 22:13:00,
2013-07-07 12:18:00,79.3,74.1,29.05,North,0,3.0,4.0,84,0.00,,,0.01,meteohub,2013-07-07 22:18:00,
2013-07-07 12:23:00,79.3,74.1,29.05,SE,135,4.0,4.0,84,0.00,,,0.01,meteohub,2013-07-07 22:23:00,
2013-07-07 12:28:00,79.5,74.7,29.06,South,180,2.0,4.0,85,0.00,,,0.01,meteohub,2013-07-07 22:28:00,
2013-07-07 12:33:00,79.7,74.8,29.05,West,270,2.0,4.0,85,0.00,,,0.01,meteohub,2013-07-07 22:33:00,
2013-07-07 12:38:00,80.1,74.5,29.05,West,270,2.0,4.0,83,0.00,,,0.01,meteohub,2013-07-07 22:38:00,
2013-07-07 12:43:00,80.4,74.8,29.05,West,270,2.0,4.0,83,0.00,,,0.01,meteohub,2013-07-07 22:43:00,
2013-07-07 12:48:00,80.8,73.9,29.05,SE,135,3.0,7.0,80,0.00,,,0.01,meteohub,2013-07-07 22:48:00,
2013-07-07 12:53:00,80.4,74.5,29.05,SE,135,0.0,7.0,82,0.00,,,0.01,meteohub,2013-07-07 22:53:00,
2013-07-07 12:58:00,79.7,73.4,29.05,SE,135,2.0,7.0,81,0.00,,,0.01,meteohub,2013-07-07 22:58:00,
2013-07-07 13:03:00,79.7,73.4,29.05,SW,225,3.0,4.0,81,0.00,,,0.01,meteohub,2013-07-07 23:03:00,
2013-07-07 13:08:00,80.2,73.6,29.05,SW,225,2.0,3.0,80,0.00,,,0.01,meteohub,2013-07-07 23:08:00,
2013-07-07 13:13:00,80.8,73.9,29.05,SW,225,3.0,4.0,80,0.00,,,0.01,meteohub,2013-07-07 23:13:00,
2013-07-07 13:18:00,80.8,73.6,29.05,SE,135,2.0,4.0,79,0.00,,,0.01,meteohub,2013-07-07 23:18:00,
2013-07-07 13:23:00,81.0,73.4,29.05,SE,135,2.0,4.0,78,0.00,,,0.01,meteohub,2013-07-07 23:23:00,
2013-07-07 13:28:00,80.6,72.7,29.05,SW,225,3.0,4.0,77,0.00,,,0.01,meteohub,2013-07-07 23:28:00,
2013-07-07 13:33:00,80.1,73.4,29.05,West,270,2.0,4.0,80,0.00,,,0.01,meteohub,2013-07-07 23:33:00,
2013-07-07 13:38:00,80.2,72.7,29.04,NW,315,2.0,4.0,78,0.00,,,0.01,meteohub,2013-07-07 23:38:00,
2013-07-07 13:43:00,80.1,72.1,29.04,SE,135,4.0,4.0,77,0.00,,,0.01,meteohub,2013-07-07 23:43:00,
2013-07-07 13:48:00,79.7,73.0,29.04,SE,135,2.0,4.0,80,0.00,,,0.01,meteohub,2013-07-07 23:48:00,
2013-07-07 13:53:00,79.2,72.5,29.04,SE,135,2.0,4.0,80,0.00,,,0.01,meteohub,2013-07-07 23:53:00,
2013-07-07 13:58:00,78.3,72.7,29.04,SE,135,2.0,4.0,83,0.00,,,0.01,meteohub,2013-07-07 23:58:00,
2013-07-07 14:03:00,77.5,72.7,29.04,South,180,2.0,4.0,85,0.00,,,0.01,meteohub,2013-07-08 00:03:00,
2013-07-07 14:08:00,77.2,72.7,29.04,South,180,2.0,4.0,86,0.00,,,0.01,meteohub,2013-07-08 00:08:00,
2013-07-07 14:14:00,77.0,72.9,29.03,SE,135,3.0,4.0,87,0.00,,,0.01,meteohub,2013-07-08 00:14:00,
2013-07-07 14:19:00,76.6,72.9,29.04,SE,135,2.0,4.0,88,0.00,,,0.01,meteohub,2013-07-08 00:19:00,
2013-07-07 14:24:00,76.6,72.9,29.04,North,0,2.0,3.0,88,0.00,,,0.01,meteohub,2013-07-08 00:24:00,
2013-07-07 14:29:00,76.5,72.7,29.03,NW,315,2.0,3.0,88,0.00,,,0.01,meteohub,2013-07-08 00:29:00,
2013-07-07 14:34:00,75.7,71.6,29.03,West,270,2.0,2.0,87,0.00,,,0.01,meteohub,2013-07-08 00:34:00,
2013-07-07 14:39:00,75.6,71.4,29.03,NW,315,2.0,4.0,87,0.00,,,0.01,meteohub,2013-07-08 00:39:00,
2013-07-07 14:44:00,75.7,72.0,29.03,South,180,0.0,4.0,88,0.00,,,0.01,meteohub,2013-07-08 00:44:00,
2013-07-07 14:49:00,75.7,72.0,29.03,West,270,2.0,4.0,88,0.00,,,0.01,meteohub,2013-07-08 00:49:00,
2013-07-07 14:54:00,75.4,71.6,29.03,West,270,2.0,2.0,88,0.00,,,0.01,meteohub,2013-07-08 00:54:00,
2013-07-07 14:59:00,75.2,71.8,29.03,West,270,2.0,3.0,89,0.00,,,0.01,meteohub,2013-07-08 00:59:00,
2013-07-07 15:04:00,75.2,71.8,29.03,West,270,0.0,3.0,89,0.00,,,0.01,meteohub,2013-07-08 01:04:00,
2013-07-07 15:09:00,75.4,72.0,29.03,West,270,1.0,3.0,89,0.00,,,0.01,meteohub,2013-07-08 01:09:00,
2013-07-07 15:14:00,75.2,71.8,29.03,NW,315,0.0,3.0,89,0.00,,,0.01,meteohub,2013-07-08 01:14:00,
2013-07-07 15:19:00,75.4,72.0,29.03,West,270,2.0,2.0,89,0.00,,,0.01,meteohub,2013-07-08 01:19:00,
2013-07-07 15:24:00,74.8,71.4,29.03,NW,315,2.0,3.0,89,0.00,,,0.01,meteohub,2013-07-08 01:24:00,
2013-07-07 15:29:00,74.8,71.8,29.03,West,270,2.0,3.0,90,0.00,,,0.01,meteohub,2013-07-08 01:29:00,
2013-07-07 15:34:00,75.0,72.1,29.03,West,270,0.0,3.0,91,0.00,,,0.01,meteohub,2013-07-08 01:34:00,
2013-07-07 15:39:00,74.8,72.3,29.03,West,270,2.0,3.0,92,0.00,,,0.01,meteohub,2013-07-08 01:39:00,
2013-07-07 15:44:00,75.0,72.9,29.02,South,180,0.0,3.0,93,0.00,,,0.01,meteohub,2013-07-08 01:44:00,
2013-07-07 15:49:00,75.0,72.9,29.02,South,180,3.0,3.0,93,0.00,,,0.01,meteohub,2013-07-08 01:49:00,
2013-07-07 15:54:00,75.2,73.4,29.02,SE,135,0.0,3.0,94,0.00,,,0.01,meteohub,2013-07-08 01:54:00,
2013-07-07 15:59:00,75.2,73.0,29.02,SE,135,1.0,3.0,93,0.00,,,0.01,meteohub,2013-07-08 01:59:00,
2013-07-07 16:04:00,75.4,73.2,29.02,SE,135,4.0,4.0,93,0.00,,,0.01,meteohub,2013-07-08 02:04:00,
2013-07-07 16:09:00,75.0,72.9,29.02,SE,135,2.0,4.0,93,0.00,,,0.01,meteohub,2013-07-08 02:09:00,
2013-07-07 16:14:00,74.7,72.9,29.02,NW,315,1.0,4.0,94,0.00,,,0.01,meteohub,2013-07-08 02:14:00,
2013-07-07 16:19:00,74.7,72.9,29.02,West,270,2.0,4.0,94,0.00,,,0.01,meteohub,2013-07-08 02:19:00,
2013-07-07 16:24:00,74.3,72.5,29.02,West,270,0.0,4.0,94,0.00,,,0.01,meteohub,2013-07-08 02:24:00,
2013-07-07 16:29:00,73.9,72.5,29.01,West,270,2.0,2.0,95,0.00,,,0.01,meteohub,2013-07-08 02:29:00,
2013-07-07 16:34:00,73.9,72.7,29.02,NW,315,0.0,3.0,96,0.00,,,0.01,meteohub,2013-07-08 02:34:00,
2013-07-07 16:39:00,74.3,73.4,29.01,NW,315,0.0,3.0,97,0.00,,,0.01,meteohub,2013-07-08 02:39:00,
2013-07-07 16:44:00,74.3,73.0,29.02,West,270,1.0,3.0,96,0.00,,,0.01,meteohub,2013-07-08 02:44:00,
2013-07-07 16:49:00,73.9,72.7,29.02,West,270,0.0,2.0,96,0.00,,,0.01,meteohub,2013-07-08 02:49:00,
2013-07-07 16:54:00,73.8,72.9,29.01,West,270,1.0,2.0,97,0.00,,,0.01,meteohub,2013-07-08 02:54:00,
2013-07-07 16:59:00,73.9,73.4,29.01,West,270,1.0,3.0,98,0.00,,,0.01,meteohub,2013-07-08 02:59:00,
2013-07-07 17:04:00,73.9,73.4,29.02,NW,315,0.0,3.0,98,0.00,,,0.01,meteohub,2013-07-08 03:04:00,
2013-07-07 17:09:00,73.9,73.4,29.01,West,270,2.0,3.0,98,0.00,,,0.01,meteohub,2013-07-08 03:09:00,
2013-07-07 17:14:00,73.6,73.0,29.01,West,270,2.0,3.0,98,0.00,,,0.01,meteohub,2013-07-08 03:14:00,
2013-07-07 17:19:00,73.4,73.0,29.02,West,270,2.0,3.0,99,0.00,,,0.01,meteohub,2013-07-08 03:19:00,
2013-07-07 17:25:00,73.2,72.9,29.02,West,270,2.0,4.0,99,0.00,,,0.01,meteohub,2013-07-08 03:25:00,
2013-07-07 17:30:00,73.0,72.7,29.02,South,180,2.0,4.0,99,0.00,,,0.01,meteohub,2013-07-08 03:30:00,
2013-07-07 17:35:00,72.9,72.5,29.02,South,180,1.0,4.0,99,0.00,,,0.01,meteohub,2013-07-08 03:35:00,
2013-07-07 17:40:00,72.9,72.5,29.02,South,180,0.0,2.0,99,0.00,,,0.01,meteohub,2013-07-08 03:40:00,
2013-07-07 17:45:00,72.7,72.3,29.02,South,180,0.0,2.0,99,0.00,,,0.01,meteohub,2013-07-08 03:45:00,
2013-07-07 17:50:00,72.5,72.1,29.02,NW,315,0.0,2.0,99,0.00,,,0.01,meteohub,2013-07-08 03:50:00,
2013-07-07 17:55:00,72.3,72.0,29.02,NW,315,0.0,1.0,99,0.00,,,0.01,meteohub,2013-07-08 03:55:00,
2013-07-07 18:00:00,72.3,72.0,29.02,NW,315,0.0,1.0,99,0.00,,,0.01,meteohub,2013-07-08 04:00:00,
2013-07-07 18:01:00,72.1,71.8,29.03,NW,315,0.0,1.0,99,0.00,,,0.01,meteohub,2013-07-08 04:01:00,
2013-07-07 18:06:00,72.1,71.8,29.02,NW,315,0.0,0.0,99,0.00,,,0.01,meteohub,2013-07-08 04:06:00,
2013-07-07 18:12:00,71.8,71.4,29.03,South,180,0.0,0.0,99,0.00,,,0.01,meteohub,2013-07-08 04:12:00,
2013-07-07 18:17:00,71.6,71.2,29.03,South,180,0.0,2.0,99,0.00,,,0.01,meteohub,2013-07-08 04:17:00,
2013-07-07 18:22:00,71.4,71.1,29.03,South,180,0.0,2.0,99,0.00,,,0.01,meteohub,2013-07-08 04:22:00,
2013-07-07 18:27:00,71.2,70.9,29.03,South,180,0.0,0.0,99,0.00,,,0.01,meteohub,2013-07-08 04:27:00,
2013-07-07 18:32:00,71.2,70.9,29.03,South,180,0.0,0.0,99,0.01,,,0.02,meteohub,2013-07-08 04:32:00,
2013-07-07 18:37:00,71.1,70.7,29.04,South,180,0.0,0.0,99,0.01,,,0.02,meteohub,2013-07-08 04:37:00,
2013-07-07 18:42:00,71.1,70.7,29.04,South,180,0.0,0.0,99,0.01,,,0.02,meteohub,2013-07-08 04:42:00,
2013-07-07 18:47:00,70.9,70.5,29.04,South,180,0.0,0.0,99,0.01,,,0.02,meteohub,2013-07-08 04:47:00,
2013-07-07 18:52:00,70.9,70.5,29.04,South,180,0.0,0.0,99,0.01,,,0.02,meteohub,2013-07-08 04:52:00,
2013-07-07 18:57:00,70.9,70.5,29.04,South,180,0.0,0.0,99,0.01,,,0.02,meteohub,2013-07-08 04:57:00,
2013-07-07 19:02:00,70.7,70.3,29.05,South,180,0.0,0.0,99,0.01,,,0.02,meteohub,2013-07-08 05:02:00,
2013-07-07 19:07:00,70.5,70.2,29.05,South,180,0.0,0.0,99,0.01,,,0.02,meteohub,2013-07-08 05:07:00,
2013-07-07 19:12:00,70.5,70.2,29.05,South,180,0.0,0.0,99,0.01,,,0.02,meteohub,2013-07-08 05:12:00,
2013-07-07 19:17:00,70.5,70.2,29.05,South,180,0.0,0.0,99,0.01,,,0.02,meteohub,2013-07-08 05:17:00,
2013-07-07 19:22:00,70.5,70.2,29.05,South,180,0.0,0.0,99,0.01,,,0.02,meteohub,2013-07-08 05:22:00,
2013-07-07 19:27:00,70.5,70.2,29.05,South,180,0.0,0.0,99,0.00,,,0.02,meteohub,2013-07-08 05:27:00,
2013-07-07 19:32:00,70.5,70.2,29.05,South,180,0.0,0.0,99,0.00,,,0.02,meteohub,2013-07-08 05:32:00,
2013-07-07 19:37:00,70.3,70.0,29.05,South,180,0.0,0.0,99,0.00,,,0.02,meteohub,2013-07-08 05:37:00,
2013-07-07 19:42:00,70.2,69.8,29.06,South,180,0.0,0.0,99,0.00,,,0.02,meteohub,2013-07-08 05:42:00,
2013-07-07 19:47:00,70.2,69.8,29.05,South,180,0.0,0.0,99,0.00,,,0.02,meteohub,2013-07-08 05:47:00,
2013-07-07 19:52:00,70.0,69.6,29.05,South,180,0.0,0.0,99,0.00,,,0.02,meteohub,2013-07-08 05:52:00,
2013-07-07 19:57:00,70.0,69.6,29.06,South,180,0.0,0.0,99,0.00,,,0.02,meteohub,2013-07-08 05:57:00,
2013-07-07 20:02:00,70.0,69.6,29.06,South,180,0.0,0.0,99,0.00,,,0.02,meteohub,2013-07-08 06:02:00,
2013-07-07 20:07:00,69.8,69.4,29.06,South,180,0.0,0.0,99,0.00,,,0.02,meteohub,2013-07-08 06:07:00,
2013-07-07 20:12:00,69.8,69.4,29.06,South,180,0.0,0.0,99,0.00,,,0.02,meteohub,2013-07-08 06:12:00,
2013-07-07 20:17:00,69.8,69.4,29.06,South,180,0.0,0.0,99,0.00,,,0.02,meteohub,2013-07-08 06:17:00,
2013-07-07 20:22:00,69.6,69.3,29.06,South,180,0.0,0.0,99,0.00,,,0.02,meteohub,2013-07-08 06:22:00,
2013-07-07 20:27:00,69.6,69.3,29.06,South,180,0.0,0.0,99,0.00,,,0.02,meteohub,2013-07-08 06:27:00,
2013-07-07 20:32:00,69.6,69.3,29.07,South,180,0.0,0.0,99,0.00,,,0.02,meteohub,2013-07-08 06:32:00,
2013-07-07 20:37:00,69.6,69.3,29.07,South,180,0.0,0.0,99,0.00,,,0.02,meteohub,2013-07-08 06:37:00,
2013-07-07 20:42:00,69.6,69.3,29.07,South,180,0.0,0.0,99,0.00,,,0.02,meteohub,2013-07-08 06:42:00,
2013-07-07 20:47:00,69.6,69.3,29.06,South,180,0.0,0.0,99,0.00,,,0.02,meteohub,2013-07-08 06:47:00,
2013-07-07 20:52:00,69.6,69.3,29.07,South,180,0.0,0.0,99,0.00,,,0.02,meteohub,2013-07-08 06:52:00,
2013-07-07 20:57:00,69.6,69.3,29.07,South,180,0.0,0.0,99,0.00,,,0.02,meteohub,2013-07-08 06:57:00,
2013-07-07 21:02:00,69.6,69.3,29.07,South,180,0.0,0.0,99,0.00,,,0.02,meteohub,2013-07-08 07:02:00,
2013-07-07 21:07:00,69.6,69.3,29.08,South,180,0.0,0.0,99,0.00,,,0.02,meteohub,2013-07-08 07:07:00,
2013-07-07 21:12:00,69.6,69.3,29.07,South,180,0.0,0.0,99,0.00,,,0.02,meteohub,2013-07-08 07:12:00,
2013-07-07 21:17:00,69.6,69.3,29.07,South,180,0.0,0.0,99,0.00,,,0.02,meteohub,2013-07-08 07:17:00,
2013-07-07 21:22:00,69.6,69.3,29.08,South,180,0.0,0.0,99,0.00,,,0.02,meteohub,2013-07-08 07:22:00,
2013-07-07 21:27:00,69.6,69.3,29.08,South,180,0.0,0.0,99,0.00,,,0.02,meteohub,2013-07-08 07:27:00,
2013-07-07 21:32:00,69.6,69.3,29.08,South,180,0.0,0.0,99,0.00,,,0.02,meteohub,2013-07-08 07:32:00,
2013-07-07 21:37:00,69.6,69.3,29.08,South,180,0.0,0.0,99,0.00,,,0.02,meteohub,2013-07-08 07:37:00,
2013-07-07 21:42:00,69.6,69.3,29.08,South,180,0.0,0.0,99,0.00,,,0.02,meteohub,2013-07-08 07:42:00,
2013-07-07 21:47:00,69.6,69.3,29.08,South,180,0.0,0.0,99,0.00,,,0.02,meteohub,2013-07-08 07:47:00,
2013-07-07 21:52:00,69.6,69.3,29.09,South,180,0.0,0.0,99,0.00,,,0.02,meteohub,2013-07-08 07:52:00,
2013-07-07 21:57:00,69.6,69.3,29.09,South,180,0.0,0.0,99,0.00,,,0.02,meteohub,2013-07-08 07:57:00,
2013-07-07 22:02:00,69.8,69.4,29.09,South,180,0.0,0.0,99,0.00,,,0.02,meteohub,2013-07-08 08:02:00,
2013-07-07 22:07:00,69.8,69.4,29.09,South,180,0.0,0.0,99,0.00,,,0.02,meteohub,2013-07-08 08:07:00,
2013-07-07 22:12:00,69.8,69.4,29.09,South,180,0.0,0.0,99,0.00,,,0.02,meteohub,2013-07-08 08:12:00,
2013-07-07 22:17:00,69.8,69.4,29.09,South,180,0.0,0.0,99,0.00,,,0.02,meteohub,2013-07-08 08:17:00,
2013-07-07 22:22:00,69.8,69.4,29.09,South,180,0.0,0.0,99,0.00,,,0.02,meteohub,2013-07-08 08:22:00,
2013-07-07 22:27:00,69.8,69.4,29.09,South,180,0.0,0.0,99,0.00,,,0.02,meteohub,2013-07-08 08:27:00,
2013-07-07 22:32:00,69.8,69.4,29.09,South,180,0.0,0.0,99,0.00,,,0.02,meteohub,2013-07-08 08:32:00,
2013-07-07 22:37:00,70.0,69.6,29.09,South,180,0.0,0.0,99,0.00,,,0.02,meteohub,2013-07-08 08:37:00,
2013-07-07 22:42:00,70.0,69.6,29.09,South,180,0.0,0.0,99,0.00,,,0.02,meteohub,2013-07-08 08:42:00,
2013-07-07 22:47:00,70.0,69.6,29.09,South,180,0.0,0.0,99,0.00,,,0.02,meteohub,2013-07-08 08:47:00,
2013-07-07 22:52:00,70.0,69.6,29.09,South,180,0.0,0.0,99,0.00,,,0.02,meteohub,2013-07-08 08:52:00,
2013-07-07 22:57:00,70.0,69.6,29.09,South,180,0.0,0.0,99,0.00,,,0.02,meteohub,2013-07-08 08:57:00,
2013-07-07 23:02:00,70.0,69.6,29.09,South,180,0.0,0.0,99,0.00,,,0.02,meteohub,2013-07-08 09:02:00,
2013-07-07 23:07:00,70.0,69.6,29.09,South,180,0.0,0.0,99,0.00,,,0.02,meteohub,2013-07-08 09:07:00,
2013-07-07 23:12:00,70.0,69.6,29.09,South,180,0.0,0.0,99,0.00,,,0.02,meteohub,2013-07-08 09:12:00,
2013-07-07 23:17:00,70.0,69.6,29.09,South,180,0.0,0.0,99,0.00,,,0.02,meteohub,2013-07-08 09:17:00,
2013-07-07 23:22:00,70.0,69.6,29.09,South,180,0.0,0.0,99,0.00,,,0.02,meteohub,2013-07-08 09:22:00,
2013-07-07 23:27:00,70.0,69.6,29.09,South,180,0.0,0.0,99,0.00,,,0.02,meteohub,2013-07-08 09:27:00,
2013-07-07 23:32:00,70.0,69.6,29.09,South,180,0.0,0.0,99,0.00,,,0.02,meteohub,2013-07-08 09:32:00,
2013-07-07 23:37:00,70.2,69.8,29.09,NE,45,0.0,0.0,99,0.00,,,0.02,meteohub,2013-07-08 09:37:00,
2013-07-07 23:41:00,70.2,69.8,29.09,NE,45,0.0,0.0,99,0.00,,,0.02,meteohub,2013-07-08 09:41:00,
2013-07-07 23:47:00,70.2,69.8,29.08,NE,45,0.0,0.0,99,0.00,,,0.02,meteohub,2013-07-08 09:47:00,
2013-07-07 23:52:00,70.2,69.8,29.08,NE,45,0.0,0.0,99,0.00,,,0.02,meteohub,2013-07-08 09:52:00,
2013-07-07 23:57:00,70.0,69.6,29.08,NE,45,0.0,0.0,99,0.00,,,0.02,meteohub,2013-07-08 09:57:00,